sensor_id;sensor_type;location;lat;lon;timestamp;P1;durP1;ratioP1;P2;durP2;ratioP2
179;SDS011;78;48.788;9.010;2024-03-08T00:01:01;70.80;;;24.50;;
179;SDS011;78;48.788;9.010;2024-03-08T00:03:27;68.40;;;25.60;;
179;SDS011;78;48.788;9.010;2024-03-08T00:05:53;71.00;;;28.23;;
179;SDS011;78;48.788;9.010;2024-03-08T00:08:21;64.10;;;25.33;;
179;SDS011;78;48.788;9.010;2024-03-08T00:10:46;68.90;;;25.53;;
179;SDS011;78;48.788;9.010;2024-03-08T00:13:12;68.83;;;26.23;;
179;SDS011;78;48.788;9.010;2024-03-08T00:15:38;62.27;;;24.77;;
179;SDS011;78;48.788;9.010;2024-03-08T00:18:07;68.10;;;25.60;;
179;SDS011;78;48.788;9.010;2024-03-08T00:20:33;68.60;;;25.17;;
179;SDS011;78;48.788;9.010;2024-03-08T00:22:59;65.90;;;25.47;;
179;SDS011;78;48.788;9.010;2024-03-08T00:25:25;66.50;;;25.10;;
179;SDS011;78;48.788;9.010;2024-03-08T00:27:51;63.07;;;24.00;;
179;SDS011;78;48.788;9.010;2024-03-08T00:30:20;64.37;;;25.60;;
179;SDS011;78;48.788;9.010;2024-03-08T00:32:47;61.97;;;23.67;;
179;SDS011;78;48.788;9.010;2024-03-08T00:35:13;67.07;;;26.17;;
179;SDS011;78;48.788;9.010;2024-03-08T00:37:39;65.87;;;25.33;;
179;SDS011;78;48.788;9.010;2024-03-08T00:40:06;60.30;;;23.77;;
179;SDS011;78;48.788;9.010;2024-03-08T00:42:35;72.87;;;28.03;;
179;SDS011;78;48.788;9.010;2024-03-08T00:45:03;65.97;;;25.70;;
179;SDS011;78;48.788;9.010;2024-03-08T00:47:29;65.37;;;25.23;;
179;SDS011;78;48.788;9.010;2024-03-08T00:49:55;65.90;;;24.50;;
179;SDS011;78;48.788;9.010;2024-03-08T00:52:23;66.17;;;25.13;;
179;SDS011;78;48.788;9.010;2024-03-08T00:54:49;64.70;;;24.40;;
179;SDS011;78;48.788;9.010;2024-03-08T00:57:15;64.50;;;24.23;;
179;SDS011;78;48.788;9.010;2024-03-08T00:59:41;69.20;;;24.10;;
179;SDS011;78;48.788;9.010;2024-03-08T01:02:07;67.90;;;25.23;;
179;SDS011;78;48.788;9.010;2024-03-08T01:04:36;67.77;;;25.67;;
179;SDS011;78;48.788;9.010;2024-03-08T01:07:02;64.27;;;25.13;;
179;SDS011;78;48.788;9.010;2024-03-08T01:09:28;63.83;;;24.90;;
179;SDS011;78;48.788;9.010;2024-03-08T01:11:54;72.67;;;26.23;;
179;SDS011;78;48.788;9.010;2024-03-08T01:14:21;67.73;;;25.53;;
179;SDS011;78;48.788;9.010;2024-03-08T01:16:47;67.60;;;25.47;;
179;SDS011;78;48.788;9.010;2024-03-08T01:19:13;72.43;;;25.53;;
179;SDS011;78;48.788;9.010;2024-03-08T01:21:40;65.27;;;25.37;;
179;SDS011;78;48.788;9.010;2024-03-08T01:24:06;60.07;;;23.73;;
179;SDS011;78;48.788;9.010;2024-03-08T01:26:32;74.10;;;26.43;;
179;SDS011;78;48.788;9.010;2024-03-08T01:28:59;65.20;;;25.10;;
179;SDS011;78;48.788;9.010;2024-03-08T01:31:25;68.23;;;25.37;;
179;SDS011;78;48.788;9.010;2024-03-08T01:33:52;64.87;;;24.07;;
179;SDS011;78;48.788;9.010;2024-03-08T01:36:18;63.67;;;24.17;;
179;SDS011;78;48.788;9.010;2024-03-08T01:38:45;66.90;;;24.67;;
179;SDS011;78;48.788;9.010;2024-03-08T01:41:11;67.67;;;25.23;;
179;SDS011;78;48.788;9.010;2024-03-08T01:43:38;65.50;;;24.33;;
179;SDS011;78;48.788;9.010;2024-03-08T01:46:04;65.87;;;24.90;;
179;SDS011;78;48.788;9.010;2024-03-08T01:48:31;65.63;;;24.10;;
179;SDS011;78;48.788;9.010;2024-03-08T01:50:57;68.40;;;23.90;;
179;SDS011;78;48.788;9.010;2024-03-08T01:53:23;74.63;;;26.70;;
179;SDS011;78;48.788;9.010;2024-03-08T01:55:50;70.40;;;24.87;;
179;SDS011;78;48.788;9.010;2024-03-08T01:58:17;66.27;;;24.97;;
179;SDS011;78;48.788;9.010;2024-03-08T02:00:46;72.73;;;25.90;;
179;SDS011;78;48.788;9.010;2024-03-08T02:03:16;76.97;;;26.27;;
179;SDS011;78;48.788;9.010;2024-03-08T02:05:42;76.43;;;27.47;;
179;SDS011;78;48.788;9.010;2024-03-08T02:08:08;67.50;;;24.67;;
179;SDS011;78;48.788;9.010;2024-03-08T02:10:39;64.77;;;23.40;;
179;SDS011;78;48.788;9.010;2024-03-08T02:13:05;66.33;;;24.00;;
179;SDS011;78;48.788;9.010;2024-03-08T02:18:16;60.60;;;23.23;;
179;SDS011;78;48.788;9.010;2024-03-08T02:20:48;75.00;;;26.43;;
179;SDS011;78;48.788;9.010;2024-03-08T02:23:14;71.97;;;26.87;;
179;SDS011;78;48.788;9.010;2024-03-08T02:25:40;62.80;;;24.30;;
179;SDS011;78;48.788;9.010;2024-03-08T02:28:12;66.70;;;25.23;;
179;SDS011;78;48.788;9.010;2024-03-08T02:30:41;62.93;;;24.20;;
179;SDS011;78;48.788;9.010;2024-03-08T02:33:07;70.90;;;24.87;;
179;SDS011;78;48.788;9.010;2024-03-08T02:35:36;61.83;;;22.57;;
179;SDS011;78;48.788;9.010;2024-03-08T02:38:03;69.10;;;24.93;;
179;SDS011;78;48.788;9.010;2024-03-08T02:40:29;69.63;;;24.27;;
179;SDS011;78;48.788;9.010;2024-03-08T02:42:55;61.50;;;23.73;;
179;SDS011;78;48.788;9.010;2024-03-08T02:45:21;69.90;;;24.83;;
179;SDS011;78;48.788;9.010;2024-03-08T02:47:47;64.23;;;24.27;;
179;SDS011;78;48.788;9.010;2024-03-08T02:50:15;68.73;;;25.33;;
179;SDS011;78;48.788;9.010;2024-03-08T02:52:42;68.93;;;25.70;;
179;SDS011;78;48.788;9.010;2024-03-08T02:55:08;66.23;;;24.83;;
179;SDS011;78;48.788;9.010;2024-03-08T02:57:35;63.50;;;23.73;;
179;SDS011;78;48.788;9.010;2024-03-08T03:00:02;59.23;;;21.73;;
179;SDS011;78;48.788;9.010;2024-03-08T03:02:29;68.10;;;24.30;;
179;SDS011;78;48.788;9.010;2024-03-08T03:04:54;66.33;;;23.47;;
179;SDS011;78;48.788;9.010;2024-03-08T03:07:21;73.13;;;25.10;;
179;SDS011;78;48.788;9.010;2024-03-08T03:09:47;61.37;;;23.37;;
179;SDS011;78;48.788;9.010;2024-03-08T03:12:12;70.50;;;23.57;;
179;SDS011;78;48.788;9.010;2024-03-08T03:14:39;67.73;;;25.40;;
179;SDS011;78;48.788;9.010;2024-03-08T03:17:05;61.23;;;22.40;;
179;SDS011;78;48.788;9.010;2024-03-08T03:19:31;68.07;;;24.00;;
179;SDS011;78;48.788;9.010;2024-03-08T03:21:57;66.30;;;22.10;;
179;SDS011;78;48.788;9.010;2024-03-08T03:24:23;61.30;;;22.43;;
179;SDS011;78;48.788;9.010;2024-03-08T03:26:49;65.30;;;22.70;;
179;SDS011;78;48.788;9.010;2024-03-08T03:29:15;72.50;;;24.80;;
179;SDS011;78;48.788;9.010;2024-03-08T03:31:42;65.83;;;23.17;;
179;SDS011;78;48.788;9.010;2024-03-08T03:34:10;57.33;;;22.20;;
179;SDS011;78;48.788;9.010;2024-03-08T03:36:37;65.83;;;23.10;;
179;SDS011;78;48.788;9.010;2024-03-08T03:39:07;64.93;;;22.63;;
179;SDS011;78;48.788;9.010;2024-03-08T03:41:38;60.27;;;21.87;;
179;SDS011;78;48.788;9.010;2024-03-08T03:44:07;70.03;;;24.13;;
179;SDS011;78;48.788;9.010;2024-03-08T03:46:33;63.17;;;24.03;;
179;SDS011;78;48.788;9.010;2024-03-08T03:49:00;60.00;;;21.87;;
179;SDS011;78;48.788;9.010;2024-03-08T03:51:28;64.90;;;23.60;;
179;SDS011;78;48.788;9.010;2024-03-08T03:53:55;54.30;;;21.00;;
179;SDS011;78;48.788;9.010;2024-03-08T03:56:25;57.83;;;21.13;;
179;SDS011;78;48.788;9.010;2024-03-08T03:58:52;66.50;;;23.73;;
179;SDS011;78;48.788;9.010;2024-03-08T04:01:18;61.43;;;23.07;;
179;SDS011;78;48.788;9.010;2024-03-08T04:03:44;59.40;;;23.60;;
179;SDS011;78;48.788;9.010;2024-03-08T04:06:11;61.00;;;22.80;;
179;SDS011;78;48.788;9.010;2024-03-08T04:08:37;58.97;;;21.60;;
179;SDS011;78;48.788;9.010;2024-03-08T04:11:03;62.13;;;22.57;;
179;SDS011;78;48.788;9.010;2024-03-08T04:13:29;62.40;;;23.60;;
179;SDS011;78;48.788;9.010;2024-03-08T04:15:55;63.40;;;22.97;;
179;SDS011;78;48.788;9.010;2024-03-08T04:18:21;62.10;;;22.37;;
179;SDS011;78;48.788;9.010;2024-03-08T04:20:47;61.70;;;23.17;;
179;SDS011;78;48.788;9.010;2024-03-08T04:23:13;62.67;;;23.60;;
179;SDS011;78;48.788;9.010;2024-03-08T04:25:39;65.83;;;22.67;;
179;SDS011;78;48.788;9.010;2024-03-08T04:28:07;58.03;;;20.40;;
179;SDS011;78;48.788;9.010;2024-03-08T04:30:35;59.87;;;22.33;;
179;SDS011;78;48.788;9.010;2024-03-08T04:33:02;57.43;;;21.77;;
179;SDS011;78;48.788;9.010;2024-03-08T04:35:28;65.57;;;23.43;;
179;SDS011;78;48.788;9.010;2024-03-08T04:37:55;64.37;;;24.03;;
179;SDS011;78;48.788;9.010;2024-03-08T04:40:22;63.70;;;23.47;;
179;SDS011;78;48.788;9.010;2024-03-08T04:42:48;64.50;;;22.53;;
179;SDS011;78;48.788;9.010;2024-03-08T04:45:16;61.87;;;23.60;;
179;SDS011;78;48.788;9.010;2024-03-08T04:47:42;62.80;;;22.53;;
179;SDS011;78;48.788;9.010;2024-03-08T04:50:08;59.70;;;22.10;;
179;SDS011;78;48.788;9.010;2024-03-08T04:52:34;67.47;;;25.30;;
179;SDS011;78;48.788;9.010;2024-03-08T04:55:00;58.90;;;22.10;;
179;SDS011;78;48.788;9.010;2024-03-08T04:57:29;67.50;;;23.50;;
179;SDS011;78;48.788;9.010;2024-03-08T04:59:55;63.40;;;24.53;;
179;SDS011;78;48.788;9.010;2024-03-08T05:02:23;66.13;;;24.07;;
179;SDS011;78;48.788;9.010;2024-03-08T05:04:49;63.50;;;22.50;;
179;SDS011;78;48.788;9.010;2024-03-08T05:07:16;67.47;;;23.93;;
179;SDS011;78;48.788;9.010;2024-03-08T05:09:41;65.63;;;24.23;;
179;SDS011;78;48.788;9.010;2024-03-08T05:12:07;76.37;;;25.93;;
179;SDS011;78;48.788;9.010;2024-03-08T05:14:33;68.90;;;25.07;;
179;SDS011;78;48.788;9.010;2024-03-08T05:17:00;63.33;;;23.60;;
179;SDS011;78;48.788;9.010;2024-03-08T05:19:26;71.33;;;24.73;;
179;SDS011;78;48.788;9.010;2024-03-08T05:21:52;68.30;;;24.03;;
179;SDS011;78;48.788;9.010;2024-03-08T05:24:18;69.77;;;25.10;;
179;SDS011;78;48.788;9.010;2024-03-08T05:26:45;60.33;;;23.03;;
179;SDS011;78;48.788;9.010;2024-03-08T05:29:11;67.17;;;24.93;;
179;SDS011;78;48.788;9.010;2024-03-08T05:31:48;64.70;;;23.83;;
179;SDS011;78;48.788;9.010;2024-03-08T05:34:14;62.60;;;22.10;;
179;SDS011;78;48.788;9.010;2024-03-08T05:36:40;57.80;;;22.00;;
179;SDS011;78;48.788;9.010;2024-03-08T05:39:09;65.33;;;24.10;;
179;SDS011;78;48.788;9.010;2024-03-08T05:41:36;61.43;;;23.30;;
179;SDS011;78;48.788;9.010;2024-03-08T05:44:02;65.00;;;25.27;;
179;SDS011;78;48.788;9.010;2024-03-08T05:46:28;64.00;;;23.70;;
179;SDS011;78;48.788;9.010;2024-03-08T05:48:55;63.40;;;24.00;;
179;SDS011;78;48.788;9.010;2024-03-08T05:51:23;64.03;;;21.83;;
179;SDS011;78;48.788;9.010;2024-03-08T05:53:51;58.03;;;21.90;;
179;SDS011;78;48.788;9.010;2024-03-08T05:56:18;61.00;;;22.40;;
179;SDS011;78;48.788;9.010;2024-03-08T05:58:44;67.40;;;24.57;;
179;SDS011;78;48.788;9.010;2024-03-08T06:01:11;66.57;;;23.50;;
179;SDS011;78;48.788;9.010;2024-03-08T06:03:38;62.00;;;23.40;;
179;SDS011;78;48.788;9.010;2024-03-08T06:06:13;63.90;;;23.67;;
179;SDS011;78;48.788;9.010;2024-03-08T06:08:39;58.33;;;22.33;;
179;SDS011;78;48.788;9.010;2024-03-08T06:11:08;66.63;;;24.60;;
179;SDS011;78;48.788;9.010;2024-03-08T06:13:34;58.63;;;21.60;;
179;SDS011;78;48.788;9.010;2024-03-08T06:16:01;69.07;;;23.63;;
179;SDS011;78;48.788;9.010;2024-03-08T06:18:33;65.47;;;24.63;;
179;SDS011;78;48.788;9.010;2024-03-08T06:21:01;59.67;;;22.63;;
179;SDS011;78;48.788;9.010;2024-03-08T06:23:28;67.80;;;25.30;;
179;SDS011;78;48.788;9.010;2024-03-08T06:25:54;69.53;;;25.27;;
179;SDS011;78;48.788;9.010;2024-03-08T06:28:20;66.60;;;24.93;;
179;SDS011;78;48.788;9.010;2024-03-08T06:30:46;68.13;;;24.90;;
179;SDS011;78;48.788;9.010;2024-03-08T06:33:12;75.03;;;26.17;;
179;SDS011;78;48.788;9.010;2024-03-08T06:35:38;66.73;;;24.67;;
179;SDS011;78;48.788;9.010;2024-03-08T06:38:04;73.33;;;27.20;;
179;SDS011;78;48.788;9.010;2024-03-08T06:40:30;77.13;;;27.17;;
179;SDS011;78;48.788;9.010;2024-03-08T06:42:56;71.37;;;26.20;;
179;SDS011;78;48.788;9.010;2024-03-08T06:45:22;67.63;;;25.00;;
179;SDS011;78;48.788;9.010;2024-03-08T06:47:48;67.00;;;26.57;;
179;SDS011;78;48.788;9.010;2024-03-08T06:50:15;66.50;;;25.27;;
179;SDS011;78;48.788;9.010;2024-03-08T06:52:41;62.87;;;23.67;;
179;SDS011;78;48.788;9.010;2024-03-08T06:55:07;73.77;;;25.90;;
179;SDS011;78;48.788;9.010;2024-03-08T06:57:37;64.90;;;24.23;;
179;SDS011;78;48.788;9.010;2024-03-08T07:00:04;72.73;;;26.07;;
179;SDS011;78;48.788;9.010;2024-03-08T07:02:30;66.70;;;25.10;;
179;SDS011;78;48.788;9.010;2024-03-08T07:04:57;76.03;;;26.20;;
179;SDS011;78;48.788;9.010;2024-03-08T07:07:23;63.60;;;24.37;;
179;SDS011;78;48.788;9.010;2024-03-08T07:09:49;61.33;;;24.20;;
179;SDS011;78;48.788;9.010;2024-03-08T07:12:15;63.27;;;23.60;;
179;SDS011;78;48.788;9.010;2024-03-08T07:14:42;67.87;;;24.80;;
179;SDS011;78;48.788;9.010;2024-03-08T07:17:10;66.60;;;24.17;;
179;SDS011;78;48.788;9.010;2024-03-08T07:19:36;61.77;;;24.27;;
179;SDS011;78;48.788;9.010;2024-03-08T07:22:03;72.90;;;27.50;;
179;SDS011;78;48.788;9.010;2024-03-08T07:24:29;63.10;;;23.63;;
179;SDS011;78;48.788;9.010;2024-03-08T07:27:13;65.87;;;23.90;;
179;SDS011;78;48.788;9.010;2024-03-08T07:29:40;66.30;;;25.40;;
179;SDS011;78;48.788;9.010;2024-03-08T07:32:06;61.60;;;24.50;;
179;SDS011;78;48.788;9.010;2024-03-08T07:34:48;60.80;;;24.10;;
179;SDS011;78;48.788;9.010;2024-03-08T07:37:18;61.03;;;24.50;;
179;SDS011;78;48.788;9.010;2024-03-08T07:39:45;59.67;;;24.00;;
179;SDS011;78;48.788;9.010;2024-03-08T07:42:12;60.13;;;23.67;;
179;SDS011;78;48.788;9.010;2024-03-08T07:44:38;59.93;;;23.60;;
179;SDS011;78;48.788;9.010;2024-03-08T07:47:05;58.53;;;23.20;;
179;SDS011;78;48.788;9.010;2024-03-08T07:49:34;56.70;;;22.70;;
179;SDS011;78;48.788;9.010;2024-03-08T07:52:00;55.37;;;22.50;;
179;SDS011;78;48.788;9.010;2024-03-08T07:54:26;52.00;;;21.97;;
179;SDS011;78;48.788;9.010;2024-03-08T07:56:52;58.60;;;22.33;;
179;SDS011;78;48.788;9.010;2024-03-08T07:59:18;56.03;;;22.47;;
179;SDS011;78;48.788;9.010;2024-03-08T08:01:46;55.03;;;22.00;;
179;SDS011;78;48.788;9.010;2024-03-08T08:04:12;53.67;;;22.70;;
179;SDS011;78;48.788;9.010;2024-03-08T08:06:42;52.93;;;22.07;;
179;SDS011;78;48.788;9.010;2024-03-08T08:09:08;51.53;;;21.80;;
179;SDS011;78;48.788;9.010;2024-03-08T08:11:45;56.57;;;23.13;;
179;SDS011;78;48.788;9.010;2024-03-08T08:14:11;52.30;;;21.87;;
179;SDS011;78;48.788;9.010;2024-03-08T08:16:37;53.27;;;21.63;;
179;SDS011;78;48.788;9.010;2024-03-08T08:19:06;52.70;;;21.70;;
179;SDS011;78;48.788;9.010;2024-03-08T08:21:35;57.20;;;22.70;;
179;SDS011;78;48.788;9.010;2024-03-08T08:24:02;56.67;;;22.27;;
179;SDS011;78;48.788;9.010;2024-03-08T08:26:28;51.23;;;21.03;;
179;SDS011;78;48.788;9.010;2024-03-08T08:28:54;52.57;;;22.17;;
179;SDS011;78;48.788;9.010;2024-03-08T08:31:20;53.13;;;22.40;;
179;SDS011;78;48.788;9.010;2024-03-08T08:33:46;55.87;;;23.40;;
179;SDS011;78;48.788;9.010;2024-03-08T08:36:13;59.23;;;21.63;;
179;SDS011;78;48.788;9.010;2024-03-08T08:38:39;54.60;;;21.77;;
179;SDS011;78;48.788;9.010;2024-03-08T08:41:09;56.10;;;20.73;;
179;SDS011;78;48.788;9.010;2024-03-08T08:43:36;50.83;;;20.77;;
179;SDS011;78;48.788;9.010;2024-03-08T08:46:02;54.13;;;22.20;;
179;SDS011;78;48.788;9.010;2024-03-08T08:48:28;49.03;;;19.93;;
179;SDS011;78;48.788;9.010;2024-03-08T08:50:55;51.20;;;20.10;;
179;SDS011;78;48.788;9.010;2024-03-08T08:53:21;50.73;;;21.47;;
179;SDS011;78;48.788;9.010;2024-03-08T08:55:47;49.10;;;20.83;;
179;SDS011;78;48.788;9.010;2024-03-08T08:58:13;48.60;;;20.10;;
179;SDS011;78;48.788;9.010;2024-03-08T09:00:39;52.00;;;20.67;;
179;SDS011;78;48.788;9.010;2024-03-08T09:03:05;53.07;;;21.63;;
179;SDS011;78;48.788;9.010;2024-03-08T09:05:32;50.03;;;20.00;;
179;SDS011;78;48.788;9.010;2024-03-08T09:07:59;50.13;;;20.20;;
179;SDS011;78;48.788;9.010;2024-03-08T09:10:25;49.20;;;19.73;;
179;SDS011;78;48.788;9.010;2024-03-08T09:12:52;49.87;;;19.90;;
179;SDS011;78;48.788;9.010;2024-03-08T09:15:19;51.13;;;20.40;;
179;SDS011;78;48.788;9.010;2024-03-08T09:17:45;48.43;;;20.40;;
179;SDS011;78;48.788;9.010;2024-03-08T09:20:12;51.03;;;19.70;;
179;SDS011;78;48.788;9.010;2024-03-08T09:22:43;49.87;;;20.17;;
179;SDS011;78;48.788;9.010;2024-03-08T09:25:09;51.40;;;20.27;;
179;SDS011;78;48.788;9.010;2024-03-08T09:27:35;47.73;;;19.70;;
179;SDS011;78;48.788;9.010;2024-03-08T09:30:01;47.03;;;19.70;;
179;SDS011;78;48.788;9.010;2024-03-08T09:32:28;47.33;;;19.70;;
179;SDS011;78;48.788;9.010;2024-03-08T09:34:54;49.63;;;20.83;;
179;SDS011;78;48.788;9.010;2024-03-08T09:37:21;47.97;;;19.83;;
179;SDS011;78;48.788;9.010;2024-03-08T09:39:47;48.60;;;19.67;;
179;SDS011;78;48.788;9.010;2024-03-08T09:42:15;48.40;;;20.07;;
179;SDS011;78;48.788;9.010;2024-03-08T09:44:47;49.33;;;20.30;;
179;SDS011;78;48.788;9.010;2024-03-08T09:47:13;49.33;;;20.37;;
179;SDS011;78;48.788;9.010;2024-03-08T09:49:39;47.50;;;19.83;;
179;SDS011;78;48.788;9.010;2024-03-08T09:52:06;46.00;;;20.30;;
179;SDS011;78;48.788;9.010;2024-03-08T09:54:32;53.10;;;20.87;;
179;SDS011;78;48.788;9.010;2024-03-08T09:56:58;49.60;;;20.77;;
179;SDS011;78;48.788;9.010;2024-03-08T09:59:24;49.60;;;20.17;;
179;SDS011;78;48.788;9.010;2024-03-08T10:01:50;50.40;;;20.70;;
179;SDS011;78;48.788;9.010;2024-03-08T10:04:24;51.80;;;21.80;;
179;SDS011;78;48.788;9.010;2024-03-08T10:06:55;47.77;;;20.00;;
179;SDS011;78;48.788;9.010;2024-03-08T10:09:22;50.97;;;20.63;;
179;SDS011;78;48.788;9.010;2024-03-08T10:11:50;46.17;;;20.20;;
179;SDS011;78;48.788;9.010;2024-03-08T10:14:16;47.77;;;20.50;;
179;SDS011;78;48.788;9.010;2024-03-08T10:16:42;48.10;;;19.13;;
179;SDS011;78;48.788;9.010;2024-03-08T10:19:07;48.60;;;19.90;;
179;SDS011;78;48.788;9.010;2024-03-08T10:21:34;46.17;;;19.53;;
179;SDS011;78;48.788;9.010;2024-03-08T10:24:02;47.47;;;20.00;;
179;SDS011;78;48.788;9.010;2024-03-08T10:26:29;45.67;;;18.93;;
179;SDS011;78;48.788;9.010;2024-03-08T10:28:56;47.80;;;19.80;;
179;SDS011;78;48.788;9.010;2024-03-08T10:31:22;46.60;;;19.17;;
179;SDS011;78;48.788;9.010;2024-03-08T10:33:48;49.23;;;19.43;;
179;SDS011;78;48.788;9.010;2024-03-08T10:36:15;50.10;;;19.70;;
179;SDS011;78;48.788;9.010;2024-03-08T10:38:41;48.03;;;20.13;;
179;SDS011;78;48.788;9.010;2024-03-08T10:41:12;51.07;;;20.43;;
179;SDS011;78;48.788;9.010;2024-03-08T10:48:54;47.60;;;19.73;;
179;SDS011;78;48.788;9.010;2024-03-08T10:51:21;53.73;;;19.90;;
179;SDS011;78;48.788;9.010;2024-03-08T10:53:48;46.80;;;20.07;;
179;SDS011;78;48.788;9.010;2024-03-08T10:56:16;46.10;;;19.33;;
179;SDS011;78;48.788;9.010;2024-03-08T10:58:42;43.80;;;18.60;;
179;SDS011;78;48.788;9.010;2024-03-08T11:01:09;46.47;;;20.20;;
179;SDS011;78;48.788;9.010;2024-03-08T11:03:46;46.10;;;19.33;;
179;SDS011;78;48.788;9.010;2024-03-08T11:08:42;44.40;;;17.63;;
179;SDS011;78;48.788;9.010;2024-03-08T11:11:28;45.70;;;18.50;;
179;SDS011;78;48.788;9.010;2024-03-08T11:13:57;42.00;;;18.47;;
179;SDS011;78;48.788;9.010;2024-03-08T11:18:58;40.27;;;17.50;;
179;SDS011;78;48.788;9.010;2024-03-08T11:21:30;45.90;;;20.23;;
179;SDS011;78;48.788;9.010;2024-03-08T11:24:07;45.90;;;19.07;;
179;SDS011;78;48.788;9.010;2024-03-08T11:26:33;40.67;;;18.03;;
179;SDS011;78;48.788;9.010;2024-03-08T11:29:46;43.07;;;17.93;;
179;SDS011;78;48.788;9.010;2024-03-08T11:31:46;44.27;;;19.30;;
179;SDS011;78;48.788;9.010;2024-03-08T11:34:15;44.37;;;18.87;;
179;SDS011;78;48.788;9.010;2024-03-08T11:36:42;40.87;;;17.63;;
179;SDS011;78;48.788;9.010;2024-03-08T11:39:08;43.83;;;19.27;;
179;SDS011;78;48.788;9.010;2024-03-08T11:41:39;42.47;;;17.97;;
179;SDS011;78;48.788;9.010;2024-03-08T11:44:06;41.07;;;17.60;;
179;SDS011;78;48.788;9.010;2024-03-08T11:46:34;44.10;;;18.63;;
179;SDS011;78;48.788;9.010;2024-03-08T11:49:00;40.37;;;17.57;;
179;SDS011;78;48.788;9.010;2024-03-08T11:51:26;39.37;;;16.73;;
179;SDS011;78;48.788;9.010;2024-03-08T11:53:53;40.00;;;16.70;;
179;SDS011;78;48.788;9.010;2024-03-08T11:56:19;38.40;;;17.47;;
179;SDS011;78;48.788;9.010;2024-03-08T11:58:52;36.43;;;16.77;;
179;SDS011;78;48.788;9.010;2024-03-08T12:01:19;36.93;;;16.57;;
179;SDS011;78;48.788;9.010;2024-03-08T12:03:45;38.57;;;16.80;;
179;SDS011;78;48.788;9.010;2024-03-08T12:06:17;36.70;;;16.67;;
179;SDS011;78;48.788;9.010;2024-03-08T12:08:43;38.30;;;16.63;;
179;SDS011;78;48.788;9.010;2024-03-08T12:11:14;36.13;;;17.13;;
179;SDS011;78;48.788;9.010;2024-03-08T12:13:40;36.73;;;16.37;;
179;SDS011;78;48.788;9.010;2024-03-08T12:16:07;36.67;;;17.17;;
179;SDS011;78;48.788;9.010;2024-03-08T12:18:35;36.53;;;16.10;;
179;SDS011;78;48.788;9.010;2024-03-08T12:23:35;36.40;;;15.87;;
179;SDS011;78;48.788;9.010;2024-03-08T12:26:11;33.53;;;15.40;;
179;SDS011;78;48.788;9.010;2024-03-08T12:28:39;33.47;;;15.43;;
179;SDS011;78;48.788;9.010;2024-03-08T12:31:06;36.60;;;16.30;;
179;SDS011;78;48.788;9.010;2024-03-08T12:33:35;37.17;;;16.33;;
179;SDS011;78;48.788;9.010;2024-03-08T12:36:01;32.90;;;15.43;;
179;SDS011;78;48.788;9.010;2024-03-08T12:38:30;34.50;;;15.27;;
179;SDS011;78;48.788;9.010;2024-03-08T12:41:00;34.00;;;15.50;;
179;SDS011;78;48.788;9.010;2024-03-08T12:43:26;38.07;;;16.40;;
179;SDS011;78;48.788;9.010;2024-03-08T12:45:55;33.57;;;15.20;;
179;SDS011;78;48.788;9.010;2024-03-08T12:48:21;36.20;;;16.47;;
179;SDS011;78;48.788;9.010;2024-03-08T12:50:47;36.73;;;16.87;;
179;SDS011;78;48.788;9.010;2024-03-08T12:53:13;35.40;;;15.97;;
179;SDS011;78;48.788;9.010;2024-03-08T12:55:39;39.10;;;16.87;;
179;SDS011;78;48.788;9.010;2024-03-08T12:58:05;37.17;;;17.20;;
179;SDS011;78;48.788;9.010;2024-03-08T13:00:34;34.47;;;16.10;;
179;SDS011;78;48.788;9.010;2024-03-08T13:03:01;35.33;;;16.00;;
179;SDS011;78;48.788;9.010;2024-03-08T13:05:28;38.60;;;16.20;;
179;SDS011;78;48.788;9.010;2024-03-08T13:07:55;36.27;;;17.50;;
179;SDS011;78;48.788;9.010;2024-03-08T13:10:22;36.17;;;16.73;;
179;SDS011;78;48.788;9.010;2024-03-08T13:12:48;37.70;;;16.30;;
179;SDS011;78;48.788;9.010;2024-03-08T13:15:14;36.63;;;15.93;;
179;SDS011;78;48.788;9.010;2024-03-08T13:17:45;34.80;;;15.90;;
179;SDS011;78;48.788;9.010;2024-03-08T13:20:12;39.90;;;17.60;;
179;SDS011;78;48.788;9.010;2024-03-08T13:22:41;33.23;;;15.30;;
179;SDS011;78;48.788;9.010;2024-03-08T13:25:07;35.40;;;16.13;;
179;SDS011;78;48.788;9.010;2024-03-08T13:27:38;34.13;;;16.20;;
179;SDS011;78;48.788;9.010;2024-03-08T13:30:04;34.47;;;16.10;;
179;SDS011;78;48.788;9.010;2024-03-08T13:32:31;34.90;;;16.53;;
179;SDS011;78;48.788;9.010;2024-03-08T13:34:57;37.13;;;17.27;;
179;SDS011;78;48.788;9.010;2024-03-08T13:37:23;41.73;;;17.93;;
179;SDS011;78;48.788;9.010;2024-03-08T13:39:49;38.20;;;16.40;;
179;SDS011;78;48.788;9.010;2024-03-08T13:42:15;34.57;;;15.63;;
179;SDS011;78;48.788;9.010;2024-03-08T13:44:45;36.00;;;15.93;;
179;SDS011;78;48.788;9.010;2024-03-08T13:47:12;33.63;;;15.40;;
179;SDS011;78;48.788;9.010;2024-03-08T13:49:38;32.57;;;14.10;;
179;SDS011;78;48.788;9.010;2024-03-08T13:52:05;42.10;;;16.20;;
179;SDS011;78;48.788;9.010;2024-03-08T13:54:34;34.47;;;15.00;;
179;SDS011;78;48.788;9.010;2024-03-08T13:57:00;33.40;;;14.70;;
179;SDS011;78;48.788;9.010;2024-03-08T13:59:28;32.73;;;14.60;;
179;SDS011;78;48.788;9.010;2024-03-08T14:01:55;36.73;;;16.57;;
179;SDS011;78;48.788;9.010;2024-03-08T14:04:22;33.77;;;15.73;;
179;SDS011;78;48.788;9.010;2024-03-08T14:06:49;34.73;;;16.17;;
179;SDS011;78;48.788;9.010;2024-03-08T14:09:16;35.60;;;15.00;;
179;SDS011;78;48.788;9.010;2024-03-08T14:11:42;33.53;;;15.40;;
179;SDS011;78;48.788;9.010;2024-03-08T14:14:11;34.00;;;15.80;;
179;SDS011;78;48.788;9.010;2024-03-08T14:16:40;34.63;;;16.27;;
179;SDS011;78;48.788;9.010;2024-03-08T14:19:08;32.33;;;14.53;;
179;SDS011;78;48.788;9.010;2024-03-08T14:21:35;34.50;;;15.50;;
179;SDS011;78;48.788;9.010;2024-03-08T14:24:02;34.50;;;14.73;;
179;SDS011;78;48.788;9.010;2024-03-08T14:26:29;34.63;;;16.03;;
179;SDS011;78;48.788;9.010;2024-03-08T14:28:55;34.20;;;15.53;;
179;SDS011;78;48.788;9.010;2024-03-08T14:31:22;37.10;;;15.80;;
179;SDS011;78;48.788;9.010;2024-03-08T14:33:50;34.83;;;14.30;;
179;SDS011;78;48.788;9.010;2024-03-08T14:36:17;33.03;;;15.30;;
179;SDS011;78;48.788;9.010;2024-03-08T14:38:44;33.73;;;14.93;;
179;SDS011;78;48.788;9.010;2024-03-08T14:41:12;34.30;;;14.50;;
179;SDS011;78;48.788;9.010;2024-03-08T14:43:42;32.07;;;13.47;;
179;SDS011;78;48.788;9.010;2024-03-08T14:46:09;33.93;;;14.67;;
179;SDS011;78;48.788;9.010;2024-03-08T14:48:38;32.77;;;14.30;;
179;SDS011;78;48.788;9.010;2024-03-08T14:51:05;36.23;;;15.10;;
179;SDS011;78;48.788;9.010;2024-03-08T14:53:35;33.47;;;13.70;;
179;SDS011;78;48.788;9.010;2024-03-08T14:56:01;31.73;;;14.03;;
179;SDS011;78;48.788;9.010;2024-03-08T14:58:27;34.87;;;14.10;;
179;SDS011;78;48.788;9.010;2024-03-08T15:00:53;33.93;;;14.80;;
179;SDS011;78;48.788;9.010;2024-03-08T15:03:21;31.47;;;14.03;;
179;SDS011;78;48.788;9.010;2024-03-08T15:05:51;32.90;;;14.87;;
179;SDS011;78;48.788;9.010;2024-03-08T15:08:18;32.83;;;14.67;;
179;SDS011;78;48.788;9.010;2024-03-08T15:10:45;33.60;;;14.47;;
179;SDS011;78;48.788;9.010;2024-03-08T15:13:12;35.27;;;14.90;;
179;SDS011;78;48.788;9.010;2024-03-08T15:15:46;39.33;;;16.07;;
179;SDS011;78;48.788;9.010;2024-03-08T15:18:12;38.23;;;16.37;;
179;SDS011;78;48.788;9.010;2024-03-08T15:20:39;31.70;;;14.57;;
179;SDS011;78;48.788;9.010;2024-03-08T15:23:06;34.53;;;15.40;;
179;SDS011;78;48.788;9.010;2024-03-08T15:25:34;38.70;;;16.70;;
179;SDS011;78;48.788;9.010;2024-03-08T15:28:01;39.90;;;17.27;;
179;SDS011;78;48.788;9.010;2024-03-08T15:30:30;33.60;;;15.10;;
179;SDS011;78;48.788;9.010;2024-03-08T15:32:58;38.80;;;16.90;;
179;SDS011;78;48.788;9.010;2024-03-08T15:35:28;39.60;;;17.40;;
179;SDS011;78;48.788;9.010;2024-03-08T15:37:54;39.03;;;17.47;;
179;SDS011;78;48.788;9.010;2024-03-08T15:40:22;38.80;;;17.80;;
179;SDS011;78;48.788;9.010;2024-03-08T15:42:48;40.03;;;17.67;;
179;SDS011;78;48.788;9.010;2024-03-08T15:45:15;38.00;;;15.87;;